This is the latest recevied weather packets stored in our database for station/object PP5MGT-13. If no packets are shown the sender has not sent any weather packets the latest 10 day(s).
| Time | Temp. | Humidity | Pressure | Rain* | Wind** | Luminosity | Snow |
|---|---|---|---|---|---|---|---|
| 1777362032 | 17.78° C | 86% | 1016.9 hPa | - | - | - | - |
| 1777361131 | 17.78° C | 86% | 1016.9 hPa | - | - | - | - |
| 1777360230 | 17.78° C | 86% | 1016.8 hPa | - | - | - | - |
| 1777359329 | 17.78° C | 83% | 1016.6 hPa | - | - | - | - |
| 1777358426 | 17.78° C | 82% | 1016.6 hPa | - | - | - | - |
| 1777357525 | 17.78° C | 81% | 1016.6 hPa | - | - | - | - |
| 1777356624 | 17.78° C | 80% | 1016.6 hPa | - | - | - | - |
| 1777347615 | 18.33° C | 77% | 1017.1 hPa | - | - | - | - |
| 1777345813 | 18.33° C | 77% | 1017.1 hPa | - | - | - | - |
| 1777344912 | 17.78° C | 79% | 1017.3 hPa | - | - | - | - |
| 1777342205 | 17.78° C | 79% | 1017.3 hPa | - | - | - | - |
| 1777338597 | 18.33° C | 78% | 1017.1 hPa | - | - | - | - |
| 1777336792 | 19.44° C | 72% | 1016.9 hPa | - | - | - | - |
| 1777335892 | 19.44° C | 71% | 1016.9 hPa | - | - | - | - |
| 1777334989 | 19.44° C | 70% | 1016.9 hPa | - | - | - | - |
| 1777332286 | 20.56° C | 66% | 1015.7 hPa | - | - | - | - |
| 1777331384 | 20.56° C | 66% | 1015.5 hPa | - | - | - | - |
| 1777328680 | 21.67° C | 61% | 1014.5 hPa | - | - | - | - |
| 1777327776 | 21.67° C | 62% | 1014.4 hPa | - | - | - | - |
| 1777326875 | 22.22° C | 61% | 1013.7 hPa | - | - | - | - |
| 1777325974 | 22.22° C | 61% | 1013.5 hPa | - | - | - | - |
| 1777324171 | 23.33° C | 57% | 1013.2 hPa | - | - | - | - |
| 1777323269 | 26.67° C | 37% | 1012.9 hPa | - | - | - | - |
| 1777320567 | 27.78° C | 32% | 1012.6 hPa | - | - | - | - |
| 1777318763 | 28.33° C | 29% | 1012.2 hPa | - | - | - | - |
* Rain since midnight (hover to see other rain measurements)
** Current wind speed in m/s (hover to see current wind gust speed)